Time;durP1;ratioP1;P1;durP2;ratioP2;P2;SDS_P1;SDS_P2;PMS_P1;PMS_P2;Temp;Humidity;BMP_temperature;BMP_pressure;BME280_temperature;BME280_humidity;BME280_pressure;Samples;Min_cycle;Max_cycle;Signal;HPM_P1;HPM_P2
2022/06/10 00:00:07;;;;;;;4.27;1.60;;;12.20;99.90;;;;;;4991758;28;20717;-75
2022/06/10 00:02:33;;;;;;;6.47;1.30;;;12.10;99.90;;;;;;4990995;28;20215;-75
2022/06/10 00:04:59;;;;;;;4.17;1.40;;;11.90;99.90;;;;;;4990987;28;20424;-75
2022/06/10 00:07:27;;;;;;;9.27;2.23;;;11.80;99.90;;;;;;4989264;28;20431;-77
2022/06/10 00:09:53;;;;;;;5.00;1.53;;;11.80;99.90;;;;;;5005469;28;20443;-76
2022/06/10 00:12:19;;;;;;;2.97;1.60;;;11.90;99.90;;;;;;4990649;28;20573;-78
2022/06/10 00:14:44;;;;;;;13.80;2.17;;;11.90;99.90;;;;;;4989223;28;20443;-77
2022/06/10 00:17:13;;;;;;;2.40;1.50;;;12.00;99.90;;;;;;4989582;28;20431;-77
2022/06/10 00:19:39;;;;;;;2.30;1.67;;;12.00;99.90;;;;;;4990705;28;20192;-75
2022/06/10 00:22:04;;;;;;;6.87;2.13;;;12.00;99.90;;;;;;4990503;28;20446;-74
2022/06/10 00:24:30;;;;;;;4.60;1.30;;;12.20;99.90;;;;;;5005214;28;20738;-74
2022/06/10 00:26:55;;;;;;;2.90;1.40;;;12.10;99.90;;;;;;4990202;28;20211;-74
2022/06/10 00:29:21;;;;;;;5.70;1.43;;;12.10;99.90;;;;;;4989201;28;20538;-75
2022/06/10 00:31:47;;;;;;;4.30;1.77;;;12.10;99.90;;;;;;4990476;28;20222;-74
2022/06/10 00:34:12;;;;;;;4.30;1.20;;;12.00;99.90;;;;;;4988670;28;20552;-75
2022/06/10 00:36:38;;;;;;;3.50;1.23;;;12.00;99.90;;;;;;4988606;28;20188;-74
2022/06/10 00:39:04;;;;;;;5.07;1.53;;;11.90;99.90;;;;;;4988426;28;20258;-75
2022/06/10 00:41:29;;;;;;;3.23;1.67;;;12.00;99.90;;;;;;4989636;28;20188;-75
2022/06/10 00:43:56;;;;;;;7.50;2.13;;;11.90;99.90;;;;;;4988135;28;20274;-74
2022/06/10 00:46:25;;;;;;;4.03;1.40;;;11.90;99.90;;;;;;4988195;28;20661;-74
2022/06/10 00:49:05;;;;;;;6.93;1.63;;;11.90;99.90;;;;;;4989573;28;21294;-75
2022/06/10 00:51:49;;;;;;;4.90;1.60;;;12.00;99.90;;;;;;4989385;28;20812;-74
2022/06/10 00:54:37;;;;;;;7.37;1.43;;;12.00;99.90;;;;;;4988169;28;20474;-75
2022/06/10 00:57:03;;;;;;;8.87;2.70;;;12.10;99.90;;;;;;4989585;28;20423;-75
2022/06/10 00:59:38;;;;;;;3.03;1.80;;;12.10;99.90;;;;;;4987809;28;20420;-74
2022/06/10 01:02:08;;;;;;;2.50;1.90;;;12.10;99.90;;;;;;4989172;28;20855;-75
2022/06/10 01:04:35;;;;;;;3.20;1.53;;;12.20;99.90;;;;;;4988130;28;20491;-74
2022/06/10 01:07:01;;;;;;;2.90;1.30;;;12.20;99.90;;;;;;4989393;28;20404;-73
2022/06/10 01:09:29;;;;;;;2.90;1.63;;;12.20;99.90;;;;;;4989276;28;20451;-74
2022/06/10 01:12:07;;;;;;;5.53;1.93;;;12.20;99.90;;;;;;4988017;28;20444;-74
2022/06/10 01:14:45;;;;;;;3.27;1.23;;;12.20;99.90;;;;;;4989122;28;20513;-75
2022/06/10 01:17:40;;;;;;;15.10;1.97;;;12.20;99.90;;;;;;4989187;28;20939;-74
2022/06/10 01:20:08;;;;;;;3.93;1.90;;;12.20;99.90;;;;;;4989416;28;20419;-74
2022/06/10 01:22:52;;;;;;;3.03;1.40;;;12.10;99.90;;;;;;4988917;28;20479;-74
2022/06/10 01:25:33;;;;;;;5.17;2.03;;;12.10;99.90;;;;;;4988374;28;20434;-75
2022/06/10 01:28:08;;;;;;;2.50;1.70;;;12.10;99.90;;;;;;4989229;28;20451;-77
2022/06/10 01:30:53;;;;;;;11.93;1.87;;;11.90;99.90;;;;;;4989082;28;20419;-77
2022/06/10 01:33:21;;;;;;;5.93;1.67;;;11.70;99.90;;;;;;4989035;28;20907;-77
2022/06/10 01:36:08;;;;;;;3.93;1.60;;;11.70;99.90;;;;;;4988935;28;20426;-77
2022/06/10 01:38:45;;;;;;;4.77;1.60;;;11.70;99.90;;;;;;4989084;28;20426;-77
2022/06/10 01:41:33;;;;;;;4.93;1.23;;;11.80;99.90;;;;;;4988932;28;20548;-76
2022/06/10 01:44:16;;;;;;;3.90;2.00;;;11.90;99.90;;;;;;5004056;28;20438;-76
2022/06/10 01:46:51;;;;;;;2.90;1.87;;;11.90;99.90;;;;;;4989040;28;20421;-76
2022/06/10 01:49:32;;;;;;;6.67;1.80;;;11.80;99.90;;;;;;4989047;28;20852;-76
2022/06/10 01:52:13;;;;;;;4.17;2.10;;;11.70;99.90;;;;;;4988864;28;21033;-76
2022/06/10 01:54:39;;;;;;;3.47;1.77;;;11.60;99.90;;;;;;4988873;28;20426;-76
2022/06/10 01:57:09;;;;;;;4.33;1.60;;;11.60;99.90;;;;;;4989283;28;20428;-76
2022/06/10 01:59:50;;;;;;;5.83;1.70;;;11.60;99.90;;;;;;4987575;28;20518;-76
2022/06/10 02:02:21;;;;;;;3.73;2.13;;;11.40;99.90;;;;;;4988828;28;20546;-76
2022/06/10 02:04:51;;;;;;;10.63;1.90;;;11.50;99.90;;;;;;4987249;28;20440;-77
2022/06/10 02:07:23;;;;;;;7.47;2.03;;;11.50;99.90;;;;;;4988899;28;20786;-77
2022/06/10 02:09:56;;;;;;;6.30;1.87;;;11.50;99.90;;;;;;4987307;28;20423;-75
2022/06/10 02:12:32;;;;;;;4.33;2.00;;;11.40;99.90;;;;;;4988691;28;20528;-75
2022/06/10 02:15:02;;;;;;;4.87;1.80;;;11.30;99.90;;;;;;4988562;28;20475;-75
2022/06/10 02:17:35;;;;;;;6.10;2.20;;;11.30;99.90;;;;;;4988651;28;20925;-74
2022/06/10 02:20:01;;;;;;;5.10;1.70;;;11.20;99.90;;;;;;4988822;28;20459;-74
2022/06/10 02:22:37;;;;;;;7.50;2.10;;;11.50;99.90;;;;;;5003180;28;20863;-75
2022/06/10 02:25:30;;;;;;;5.33;1.80;;;11.30;99.90;;;;;;4988716;28;20421;-74
2022/06/10 02:28:04;;;;;;;10.60;2.30;;;11.40;99.90;;;;;;4988243;28;21028;-73
2022/06/10 02:30:43;;;;;;;6.90;2.00;;;11.50;99.90;;;;;;4987744;28;20423;-73
2022/06/10 02:33:10;;;;;;;6.50;1.63;;;11.50;99.90;;;;;;5003503;28;20462;-73
2022/06/10 02:35:59;;;;;;;13.33;2.50;;;11.70;99.90;;;;;;4988602;28;20432;-76
2022/06/10 02:38:43;;;;;;;6.97;2.53;;;11.80;99.90;;;;;;4989905;28;20450;-77
2022/06/10 02:41:24;;;;;;;6.77;1.73;;;11.80;99.90;;;;;;4992075;28;20430;-76
2022/06/10 02:43:57;;;;;;;10.27;2.60;;;11.70;99.90;;;;;;4990591;28;20507;-76
2022/06/10 02:46:41;;;;;;;4.13;1.80;;;11.80;99.90;;;;;;4991927;28;20427;-76
2022/06/10 02:49:14;;;;;;;4.77;1.90;;;11.80;99.90;;;;;;4991821;28;20498;-76
2022/06/10 02:51:40;;;;;;;13.30;2.47;;;11.70;99.90;;;;;;4991807;28;20428;-75
2022/06/10 02:54:23;;;;;;;5.00;1.93;;;11.60;99.90;;;;;;4990449;28;20429;-75
2022/06/10 02:56:49;;;;;;;4.17;2.20;;;11.60;99.90;;;;;;4991793;28;20196;-75
2022/06/10 03:02:37;;;;;;;6.30;2.00;;;11.40;99.90;;;;;;4996790;28;20251;-78
2022/06/10 03:05:33;;;;;;;11.13;2.50;;;11.40;99.90;;;;;;4992308;28;20930;-77
2022/06/10 03:08:29;;;;;;;5.07;1.80;;;11.40;99.90;;;;;;4995938;28;20449;-77
2022/06/10 03:11:15;;;;;;;5.67;1.83;;;11.50;99.90;;;;;;4984918;28;20419;-77
2022/06/10 03:14:11;;;;;;;4.90;1.70;;;11.60;99.90;;;;;;4993961;28;20563;-77
2022/06/10 03:16:43;;;;;;;8.57;2.53;;;11.70;99.90;;;;;;5006359;28;20438;-77
2022/06/10 03:19:35;;;;;;;10.27;2.37;;;11.80;99.90;;;;;;4991337;28;20477;-76
2022/06/10 03:22:36;;;;;;;6.67;2.07;;;11.70;99.90;;;;;;4993500;28;20517;-78
2022/06/10 03:25:19;;;;;;;9.10;1.97;;;11.70;99.90;;;;;;4966259;28;20464;-77
2022/06/10 03:28:05;;;;;;;9.17;1.90;;;11.70;99.90;;;;;;4993400;28;20780;-77
2022/06/10 03:30:34;;;;;;;6.90;1.83;;;11.70;99.90;;;;;;4991178;28;20431;-74
2022/06/10 03:33:21;;;;;;;8.30;2.27;;;11.70;99.90;;;;;;4989711;28;20464;-75
2022/06/10 03:36:16;;;;;;;7.90;2.30;;;11.60;99.90;;;;;;4989547;28;20431;-77
2022/06/10 03:38:45;;;;;;;4.13;2.17;;;11.70;99.90;;;;;;4987343;28;20795;-77
2022/06/10 03:41:25;;;;;;;7.60;2.90;;;11.60;99.90;;;;;;4991269;28;20961;-77
2022/06/10 03:43:53;;;;;;;3.93;2.90;;;11.60;99.90;;;;;;4990763;28;20444;-76
2022/06/10 03:46:22;;;;;;;4.53;2.37;;;11.60;99.90;;;;;;5005691;28;20466;-76
2022/06/10 03:48:51;;;;;;;3.43;2.30;;;11.70;99.90;;;;;;4990602;28;21269;-76
2022/06/10 03:51:18;;;;;;;9.47;2.47;;;11.60;99.90;;;;;;4990856;28;20428;-77
2022/06/10 03:53:45;;;;;;;6.00;2.20;;;11.70;99.90;;;;;;4989288;28;20461;-76
2022/06/10 03:56:12;;;;;;;6.40;2.10;;;11.60;99.90;;;;;;4990732;28;20431;-76
2022/06/10 03:58:41;;;;;;;7.90;2.60;;;11.50;99.90;;;;;;4990793;28;20504;-76
2022/06/10 04:01:07;;;;;;;5.53;2.00;;;11.50;99.90;;;;;;4988706;28;20895;-75
2022/06/10 04:03:33;;;;;;;5.90;2.03;;;11.60;99.90;;;;;;4989601;28;20483;-76
2022/06/10 04:05:59;;;;;;;8.27;2.80;;;11.60;99.90;;;;;;5004527;28;20424;-75
2022/06/10 04:08:24;;;;;;;12.13;2.77;;;11.70;99.90;;;;;;4988199;28;20455;-75
2022/06/10 04:10:50;;;;;;;7.57;1.80;;;11.80;99.90;;;;;;4988179;28;20189;-75
2022/06/10 04:13:17;;;;;;;13.93;2.80;;;11.80;99.90;;;;;;4988080;28;20279;-75
2022/06/10 04:15:44;;;;;;;10.33;1.63;;;11.90;99.90;;;;;;4987999;28;20259;-75
2022/06/10 04:18:10;;;;;;;9.83;1.90;;;12.00;99.90;;;;;;4989523;28;20528;-76
2022/06/10 04:20:38;;;;;;;7.07;2.20;;;12.00;99.90;;;;;;4988233;28;20426;-76
2022/06/10 04:23:04;;;;;;;13.53;3.00;;;12.10;99.90;;;;;;5004159;28;20479;-75
2022/06/10 04:25:32;;;;;;;7.13;2.33;;;12.20;99.90;;;;;;4989523;28;20491;-75
2022/06/10 04:27:58;;;;;;;9.93;2.50;;;12.30;99.90;;;;;;5004545;28;20439;-75
2022/06/10 04:30:29;;;;;;;3.90;1.60;;;12.30;99.90;;;;;;4989636;28;20795;-75
2022/06/10 04:32:56;;;;;;;4.57;1.83;;;12.40;99.90;;;;;;4988114;28;20855;-75
2022/06/10 04:35:23;;;;;;;5.47;2.57;;;12.50;99.90;;;;;;4989733;28;21267;-75
2022/06/10 04:37:49;;;;;;;5.77;2.50;;;12.40;99.90;;;;;;4989479;28;20466;-76
2022/06/10 04:40:18;;;;;;;4.63;1.90;;;12.40;99.90;;;;;;4989667;28;20436;-76
2022/06/10 04:42:50;;;;;;;13.70;2.13;;;12.50;99.90;;;;;;4972237;28;20513;-75
2022/06/10 04:45:20;;;;;;;4.77;2.07;;;12.60;99.90;;;;;;4990123;28;20463;-76
2022/06/10 04:47:46;;;;;;;4.33;1.70;;;12.70;99.90;;;;;;4988817;28;21133;-75
2022/06/10 04:50:15;;;;;;;7.43;2.37;;;12.90;99.90;;;;;;4989784;28;20424;-75
2022/06/10 04:52:41;;;;;;;8.33;2.30;;;13.10;99.90;;;;;;4990654;28;20946;-76
2022/06/10 04:55:08;;;;;;;12.17;4.10;;;13.10;99.90;;;;;;4991083;28;20485;-76
2022/06/10 04:57:35;;;;;;;6.27;3.60;;;13.20;99.90;;;;;;4991470;28;20524;-76
2022/06/10 05:00:07;;;;;;;10.27;3.80;;;13.20;99.90;;;;;;4990298;28;20429;-76
2022/06/10 05:02:34;;;;;;;11.07;3.90;;;13.20;99.90;;;;;;4991948;28;20493;-76
2022/06/10 05:05:00;;;;;;;15.50;3.53;;;13.30;99.90;;;;;;4990923;28;21122;-75
2022/06/10 05:07:26;;;;;;;5.10;2.93;;;13.30;99.90;;;;;;4989343;28;20800;-75
2022/06/10 05:09:52;;;;;;;11.07;3.43;;;13.40;99.90;;;;;;4987718;28;20963;-76
2022/06/10 05:12:17;;;;;;;10.60;3.43;;;13.50;99.90;;;;;;4987243;28;20453;-75
2022/06/10 05:14:43;;;;;;;11.67;2.50;;;13.70;99.90;;;;;;4988439;28;20679;-75
2022/06/10 05:17:09;;;;;;;8.50;2.57;;;13.80;99.90;;;;;;4988413;28;20197;-75
2022/06/10 05:19:35;;;;;;;6.50;1.90;;;13.90;99.90;;;;;;4988318;28;20193;-76
2022/06/10 05:22:00;;;;;;;8.20;2.20;;;14.00;99.90;;;;;;4988247;28;20275;-76
2022/06/10 05:24:26;;;;;;;9.87;2.20;;;14.10;99.90;;;;;;4987821;28;20427;-75
2022/06/10 05:26:52;;;;;;;3.93;1.63;;;14.10;99.90;;;;;;4988135;28;20620;-75
2022/06/10 05:29:17;;;;;;;5.80;1.57;;;14.20;99.90;;;;;;4988159;28;20656;-76
2022/06/10 05:31:43;;;;;;;7.73;1.90;;;14.40;99.90;;;;;;4986700;28;20615;-76
2022/06/10 05:36:53;;;;;;;12.17;2.33;;;14.80;99.90;;;;;;4989355;28;20658;-76
2022/06/10 05:39:19;;;;;;;4.20;2.43;;;14.80;99.90;;;;;;4986699;28;20428;-76
2022/06/10 05:44:29;;;;;;;5.53;2.77;;;15.20;99.90;;;;;;4988439;28;20192;-76
2022/06/10 05:46:56;;;;;;;6.63;2.70;;;15.30;99.90;;;;;;4988294;28;20425;-76
2022/06/10 05:49:22;;;;;;;6.50;2.73;;;15.40;99.90;;;;;;4988041;28;20204;-76
2022/06/10 05:51:48;;;;;;;7.67;3.03;;;15.50;99.90;;;;;;4988443;28;20484;-76
2022/06/10 05:54:15;;;;;;;3.13;2.13;;;15.70;99.90;;;;;;4986589;28;20857;-76
2022/06/10 05:56:43;;;;;;;10.33;2.43;;;15.70;99.90;;;;;;4987969;28;20922;-76
2022/06/10 05:59:09;;;;;;;12.30;3.43;;;15.80;99.90;;;;;;4986324;28;20437;-76
2022/06/10 06:01:35;;;;;;;8.10;2.33;;;15.80;99.90;;;;;;4986194;28;20561;-76
2022/06/10 06:04:01;;;;;;;8.23;2.40;;;16.00;99.90;;;;;;4987656;28;20934;-76
2022/06/10 06:06:27;;;;;;;7.73;2.57;;;16.20;99.90;;;;;;4987579;28;20421;-76
2022/06/10 06:08:53;;;;;;;7.27;2.80;;;16.20;99.90;;;;;;4987793;28;20187;-76
2022/06/10 06:11:19;;;;;;;6.97;1.80;;;16.40;99.90;;;;;;4989015;28;20668;-76
2022/06/10 06:13:45;;;;;;;10.83;2.13;;;16.70;99.90;;;;;;5005971;28;20233;-76
2022/06/10 06:16:14;;;;;;;5.03;2.00;;;16.80;99.90;;;;;;4991310;28;20801;-76
2022/06/10 06:18:40;;;;;;;6.63;2.30;;;16.90;99.90;;;;;;4990173;28;20437;-76
2022/06/10 06:21:06;;;;;;;7.87;2.17;;;16.90;99.90;;;;;;4991124;28;20428;-76
2022/06/10 06:23:32;;;;;;;5.43;1.80;;;17.00;99.90;;;;;;5005548;28;20485;-76
2022/06/10 06:25:58;;;;;;;4.77;1.87;;;17.10;99.90;;;;;;4991108;28;20192;-76
2022/06/10 06:28:23;;;;;;;7.80;2.40;;;17.20;99.90;;;;;;4989652;28;20437;-76
2022/06/10 06:30:49;;;;;;;9.43;2.10;;;17.30;99.90;;;;;;4991016;28;20199;-76
2022/06/10 06:33:15;;;;;;;14.00;2.37;;;17.30;99.90;;;;;;4989850;28;20761;-76
2022/06/10 06:35:47;;;;;;;9.40;1.90;;;17.30;99.90;;;;;;4990942;28;20199;-76
2022/06/10 06:38:14;;;;;;;11.97;2.00;;;17.40;99.90;;;;;;5005800;28;20265;-76
2022/06/10 06:40:41;;;;;;;3.17;1.80;;;17.60;99.90;;;;;;4990779;28;20929;-76
2022/06/10 06:43:08;;;;;;;8.07;1.97;;;17.70;99.90;;;;;;4989066;28;20562;-76
2022/06/10 06:45:34;;;;;;;9.30;1.73;;;17.60;99.90;;;;;;4990831;28;20452;-76
2022/06/10 06:48:08;;;;;;;4.87;1.93;;;17.60;99.90;;;;;;4989420;28;20429;-76
2022/06/10 06:50:35;;;;;;;5.80;2.40;;;17.60;99.90;;;;;;4991106;28;20435;-76
2022/06/10 06:53:01;;;;;;;5.03;1.80;;;17.60;99.90;;;;;;4990849;28;20990;-76
2022/06/10 06:55:27;;;;;;;8.83;2.33;;;17.60;99.90;;;;;;4989289;28;20435;-76
2022/06/10 06:57:53;;;;;;;3.57;1.70;;;17.70;99.90;;;;;;4989872;28;20427;-76
2022/06/10 07:00:20;;;;;;;15.07;2.57;;;17.70;99.90;;;;;;4989631;28;20191;-76
2022/06/10 07:02:46;;;;;;;8.23;1.73;;;17.80;99.90;;;;;;4990212;28;20475;-76
2022/06/10 07:05:12;;;;;;;6.10;1.90;;;17.90;99.90;;;;;;4990176;28;20432;-76
2022/06/10 07:07:42;;;;;;;2.60;1.30;;;18.00;99.90;;;;;;4990113;28;20455;-76
2022/06/10 07:10:10;;;;;;;6.70;2.03;;;18.20;99.90;;;;;;5004869;28;20437;-76
2022/06/10 07:12:35;;;;;;;4.70;1.90;;;18.20;99.90;;;;;;4989880;28;20449;-76
2022/06/10 07:15:01;;;;;;;6.57;1.80;;;18.30;99.90;;;;;;4988642;28;20440;-76
2022/06/10 07:17:27;;;;;;;11.80;2.40;;;18.30;99.90;;;;;;4990429;28;20197;-76
2022/06/10 07:19:54;;;;;;;11.03;2.00;;;18.30;99.90;;;;;;4988665;28;20256;-76
2022/06/10 07:22:20;;;;;;;5.87;2.03;;;18.20;99.90;;;;;;4987709;28;20230;-76
2022/06/10 07:24:46;;;;;;;5.90;2.47;;;18.20;99.90;;;;;;4988046;28;20433;-76
2022/06/10 07:27:11;;;;;;;9.43;2.10;;;18.20;99.90;;;;;;4988595;28;20721;-76
2022/06/10 07:29:37;;;;;;;6.60;1.47;;;18.20;99.90;;;;;;4990216;28;20526;-76
2022/06/10 07:32:03;;;;;;;7.43;2.00;;;18.30;99.90;;;;;;4990382;28;20291;-76
2022/06/10 07:34:29;;;;;;;5.67;1.80;;;18.40;99.90;;;;;;4990409;28;21002;-76
2022/06/10 07:36:55;;;;;;;4.57;1.53;;;18.40;99.90;;;;;;4988997;28;20859;-75
2022/06/10 07:39:20;;;;;;;4.40;1.50;;;18.40;99.90;;;;;;4972940;28;20677;-75
2022/06/10 07:42:00;;;;;;;3.53;1.83;;;18.40;99.90;;;;;;4972578;28;20251;-75
2022/06/10 07:44:27;;;;;;;3.20;1.67;;;18.40;99.90;;;;;;5005539;28;20557;-76
2022/06/10 07:46:55;;;;;;;5.70;1.73;;;18.50;99.90;;;;;;4988528;28;20836;-75
2022/06/10 07:49:21;;;;;;;4.80;2.43;;;18.60;99.90;;;;;;4990353;28;20464;-75
2022/06/10 07:51:47;;;;;;;3.90;1.53;;;18.70;99.90;;;;;;4990695;28;20483;-75
2022/06/10 07:54:13;;;;;;;3.27;1.30;;;18.80;99.90;;;;;;4988512;28;20205;-75
2022/06/10 07:56:39;;;;;;;2.73;1.37;;;18.80;99.90;;;;;;4990565;28;20440;-75
2022/06/10 07:59:06;;;;;;;3.43;1.33;;;18.90;99.90;;;;;;4989704;28;20778;-75
2022/06/10 08:01:32;;;;;;;3.53;1.83;;;18.90;99.90;;;;;;4990577;28;20475;-75
2022/06/10 08:03:59;;;;;;;3.87;1.50;;;19.00;99.90;;;;;;4989751;28;20953;-76
2022/06/10 08:06:26;;;;;;;5.60;1.30;;;19.10;99.90;;;;;;4990346;28;20427;-76
2022/06/10 08:08:52;;;;;;;5.17;1.90;;;19.20;99.90;;;;;;4989732;28;20974;-75
2022/06/10 08:11:19;;;;;;;7.03;2.13;;;19.30;99.90;;;;;;4988249;28;20463;-76
2022/06/10 08:13:45;;;;;;;6.83;1.87;;;19.30;99.90;;;;;;4988453;28;20468;-75
2022/06/10 08:16:11;;;;;;;4.70;2.20;;;19.40;99.90;;;;;;4990403;28;20559;-75
2022/06/10 08:18:37;;;;;;;10.17;1.77;;;19.50;99.90;;;;;;4990781;28;20852;-75
2022/06/10 08:23:49;;;;;;;6.53;1.43;;;19.70;99.90;;;;;;4989454;28;20434;-75
2022/06/10 08:26:17;;;;;;;6.40;2.17;;;20.00;99.90;;;;;;4989834;28;20415;-75
2022/06/10 08:28:45;;;;;;;8.23;2.43;;;20.20;99.90;;;;;;4989348;28;20480;-76
2022/06/10 08:31:11;;;;;;;5.90;1.63;;;20.30;99.90;;;;;;4989372;28;20444;-76
2022/06/10 08:33:37;;;;;;;7.90;1.60;;;20.40;99.90;;;;;;4988902;28;20444;-76
2022/06/10 08:36:03;;;;;;;7.30;1.67;;;20.60;99.90;;;;;;4987935;28;20207;-76
2022/06/10 08:38:29;;;;;;;7.90;2.07;;;20.50;99.90;;;;;;4988835;28;20423;-75
2022/06/10 08:41:00;;;;;;;10.33;1.60;;;20.60;99.90;;;;;;4989017;28;20835;-75
2022/06/10 08:43:35;;;;;;;5.20;1.30;;;20.90;99.90;;;;;;4988482;28;20798;-75
2022/06/10 08:46:07;;;;;;;5.93;1.37;;;21.10;99.00;;;;;;4988803;28;20419;-75
2022/06/10 08:49:00;;;;;;;5.17;2.00;;;21.30;97.20;;;;;;4988570;28;20776;-75
2022/06/10 08:51:32;;;;;;;6.13;2.30;;;21.50;92.40;;;;;;4988502;28;20438;-75
2022/06/10 08:54:24;;;;;;;4.83;2.10;;;21.60;92.60;;;;;;4988473;28;20421;-75
2022/06/10 08:56:53;;;;;;;4.17;1.40;;;21.60;94.60;;;;;;4988146;28;20419;-75
2022/06/10 08:59:36;;;;;;;5.93;1.53;;;21.70;90.90;;;;;;4988213;28;20476;-75
2022/06/10 09:02:23;;;;;;;5.00;1.40;;;21.90;94.60;;;;;;4987054;28;20491;-75
2022/06/10 09:04:53;;;;;;;4.03;1.50;;;22.10;93.10;;;;;;4988246;28;20471;-75
2022/06/10 09:07:42;;;;;;;8.80;1.70;;;22.20;90.90;;;;;;4988485;28;20420;-75
2022/06/10 09:10:17;;;;;;;6.40;1.50;;;22.40;90.90;;;;;;4988409;28;20837;-75
2022/06/10 09:13:18;;;;;;;4.27;1.53;;;22.50;88.50;;;;;;4988193;28;20460;-75
2022/06/10 09:15:53;;;;;;;8.23;1.97;;;22.80;92.00;;;;;;4927310;29;20477;-75
2022/06/10 09:19:00;;;;;;;8.23;1.80;;;23.00;92.40;;;;;;4991539;28;20517;-75
2022/06/10 09:21:56;;;;;;;11.80;1.57;;;23.20;90.90;;;;;;5002282;28;20444;-75
2022/06/10 09:24:37;;;;;;;9.73;1.83;;;23.50;92.10;;;;;;4987860;28;20920;-75
2022/06/10 09:27:26;;;;;;;7.30;1.60;;;23.70;91.80;;;;;;4988073;28;21115;-75
2022/06/10 09:29:53;;;;;;;5.23;1.63;;;24.00;90.70;;;;;;5002620;28;20489;-75
2022/06/10 09:32:47;;;;;;;3.73;1.60;;;24.20;90.60;;;;;;4987579;28;20443;-75
2022/06/10 09:35:43;;;;;;;4.63;1.50;;;24.30;90.20;;;;;;4987893;28;20573;-75
2022/06/10 09:38:24;;;;;;;5.50;2.10;;;24.50;90.40;;;;;;4986065;28;20466;-75
2022/06/10 09:41:16;;;;;;;3.23;1.60;;;24.60;90.50;;;;;;4987805;28;20490;-75
2022/06/10 09:43:56;;;;;;;5.10;2.17;;;24.70;88.10;;;;;;5002399;28;20479;-75
2022/06/10 09:47:00;;;;;;;3.40;1.67;;;24.90;87.60;;;;;;4989159;28;20535;-75
2022/06/10 09:50:04;;;;;;;10.50;1.43;;;25.10;85.70;;;;;;4991727;28;20424;-75
2022/06/10 09:53:01;;;;;;;4.23;1.30;;;25.20;81.30;;;;;;4991777;28;20781;-75
2022/06/10 09:55:48;;;;;;;6.00;1.60;;;25.20;80.50;;;;;;4991908;28;20419;-75
2022/06/10 09:58:32;;;;;;;8.63;1.87;;;25.10;81.40;;;;;;4992269;28;20428;-75
2022/06/10 10:01:09;;;;;;;5.03;1.60;;;25.20;82.60;;;;;;4992432;28;20420;-75
2022/06/10 10:03:34;;;;;;;6.20;1.70;;;25.30;80.10;;;;;;4991802;28;20479;-75
2022/06/10 10:06:12;;;;;;;2.20;1.17;;;25.40;80.50;;;;;;4990647;28;20428;-75
2022/06/10 10:09:03;;;;;;;3.57;1.27;;;25.50;81.60;;;;;;4993809;28;20258;-75
2022/06/10 10:12:10;;;;;;;4.30;1.37;;;25.80;80.00;;;;;;4992992;28;20420;-75
2022/06/10 10:15:00;;;;;;;4.13;1.50;;;26.10;79.30;;;;;;4987073;28;20538;-75
2022/06/10 10:17:43;;;;;;;5.63;1.70;;;26.00;79.80;;;;;;4992751;28;20434;-75
2022/06/10 10:20:27;;;;;;;8.27;1.67;;;25.20;81.90;;;;;;4993128;28;20759;-75
2022/06/10 10:23:24;;;;;;;3.70;1.20;;;25.40;82.50;;;;;;4992538;28;20483;-75
2022/06/10 10:25:50;;;;;;;3.47;1.27;;;25.70;83.30;;;;;;4988433;28;20436;-75
2022/06/10 10:28:28;;;;;;;5.40;1.87;;;26.20;83.30;;;;;;4991268;28;20435;-75
2022/06/10 10:30:59;;;;;;;5.33;1.73;;;26.50;81.30;;;;;;4990859;28;20181;-75
2022/06/10 10:33:25;;;;;;;6.00;1.70;;;26.60;81.20;;;;;;4990889;28;20444;-75
2022/06/10 10:35:54;;;;;;;9.07;1.53;;;26.70;81.70;;;;;;4990852;28;20510;-75
2022/06/10 10:38:36;;;;;;;8.40;1.50;;;26.80;80.20;;;;;;4990823;28;20190;-75
2022/06/10 10:41:36;;;;;;;4.40;1.33;;;27.00;82.40;;;;;;4991014;28;20433;-75
2022/06/10 10:44:21;;;;;;;6.17;1.53;;;26.80;78.40;;;;;;4958210;28;20437;-76
2022/06/10 10:47:24;;;;;;;3.80;1.67;;;27.00;81.30;;;;;;4990657;28;20400;-75
2022/06/10 10:49:54;;;;;;;6.10;1.70;;;27.00;75.20;;;;;;4930632;29;21163;-73
2022/06/10 10:52:25;;;;;;;3.40;1.57;;;26.50;78.30;;;;;;4976491;28;20448;-73
2022/06/10 10:54:59;;;;;;;2.73;1.70;;;26.80;77.50;;;;;;4990949;28;20416;-73
2022/06/10 10:57:29;;;;;;;10.50;2.07;;;27.00;78.00;;;;;;4990748;28;20417;-73
2022/06/10 11:00:24;;;;;;;9.20;2.00;;;27.00;77.60;;;;;;4989361;28;20923;-73
2022/06/10 11:02:54;;;;;;;6.00;1.53;;;27.30;72.10;;;;;;4981958;28;20473;-74
2022/06/10 11:05:31;;;;;;;3.30;1.70;;;27.40;72.70;;;;;;4990391;28;20417;-74
2022/06/10 11:08:11;;;;;;;3.30;2.00;;;27.50;71.70;;;;;;4990141;28;20424;-74
2022/06/10 11:10:56;;;;;;;3.53;1.40;;;27.60;72.70;;;;;;4990104;28;20449;-74
2022/06/10 11:13:55;;;;;;;3.50;1.40;;;27.70;70.80;;;;;;4989970;28;20471;-73
2022/06/10 11:16:26;;;;;;;6.00;2.10;;;27.70;71.00;;;;;;4977074;28;20435;-73
2022/06/10 11:19:30;;;;;;;6.20;1.40;;;28.00;69.10;;;;;;4991430;28;20524;-80
2022/06/10 11:22:19;;;;;;;4.30;1.87;;;27.60;70.20;;;;;;4966052;28;20482;-77
2022/06/10 11:25:16;;;;;;;7.03;1.77;;;26.80;72.80;;;;;;4989914;28;21216;-74
2022/06/10 11:27:58;;;;;;;6.13;1.77;;;26.10;71.70;;;;;;5004357;28;20428;-75
2022/06/10 11:30:43;;;;;;;6.20;1.53;;;26.30;70.40;;;;;;5004846;28;20802;-76
2022/06/10 11:33:32;;;;;;;7.97;1.17;;;26.40;72.30;;;;;;4989615;28;20484;-76
2022/06/10 11:36:03;;;;;;;4.40;1.47;;;25.70;69.80;;;;;;4989749;28;20432;-75
2022/06/10 11:38:31;;;;;;;3.60;1.57;;;25.20;77.70;;;;;;4989529;28;20535;-75
2022/06/10 11:41:12;;;;;;;8.30;2.00;;;24.80;82.80;;;;;;4989673;28;20461;-75
2022/06/10 11:43:46;;;;;;;4.20;1.80;;;24.60;83.00;;;;;;4989278;28;20483;-76
2022/06/10 11:46:36;;;;;;;8.40;1.40;;;24.40;81.30;;;;;;4989588;28;20408;-75
2022/06/10 11:49:11;;;;;;;6.20;1.80;;;24.20;84.00;;;;;;4989553;28;20404;-75
2022/06/10 11:51:50;;;;;;;4.67;1.70;;;24.10;83.90;;;;;;4989943;28;21043;-75
2022/06/10 11:54:40;;;;;;;2.70;1.33;;;24.00;86.60;;;;;;4990424;28;20406;-76
2022/06/10 12:00:33;;;;;;;6.67;1.60;;;24.80;86.40;;;;;;4990438;28;20410;-76
2022/06/10 12:03:04;;;;;;;7.00;1.40;;;25.80;79.30;;;;;;4990135;28;20467;-76
2022/06/10 12:05:46;;;;;;;6.27;1.83;;;26.20;77.60;;;;;;4990007;28;20748;-76
2022/06/10 12:08:30;;;;;;;3.03;1.00;;;26.30;73.90;;;;;;4990112;28;20936;-76
2022/06/10 12:11:25;;;;;;;2.80;1.33;;;26.40;73.70;;;;;;4990099;28;21062;-76
2022/06/10 12:14:32;;;;;;;8.63;1.30;;;26.70;71.90;;;;;;5004614;28;20492;-77
2022/06/10 12:17:24;;;;;;;4.30;1.67;;;26.40;75.40;;;;;;4976878;28;20563;-76
2022/06/10 12:20:04;;;;;;;5.57;1.40;;;26.20;76.50;;;;;;4989408;28;20405;-76
2022/06/10 12:22:32;;;;;;;5.37;1.70;;;26.50;78.60;;;;;;4989072;28;20477;-76
2022/06/10 12:24:57;;;;;;;3.67;1.17;;;26.80;76.70;;;;;;4989070;28;20559;-76
2022/06/10 12:27:30;;;;;;;4.93;1.50;;;27.30;73.20;;;;;;4988858;28;20527;-76
2022/06/10 12:30:09;;;;;;;3.77;1.53;;;27.50;71.80;;;;;;4989103;28;20170;-76
2022/06/10 12:32:53;;;;;;;4.17;1.53;;;27.40;73.20;;;;;;4988810;28;20483;-76
2022/06/10 12:35:28;;;;;;;3.10;1.40;;;26.60;70.50;;;;;;4988965;28;20417;-76
2022/06/10 12:37:57;;;;;;;6.03;2.13;;;26.00;77.40;;;;;;4988826;28;20519;-75
2022/06/10 12:40:31;;;;;;;6.60;1.50;;;25.60;76.70;;;;;;5003815;28;20455;-76
2022/06/10 12:43:04;;;;;;;10.60;2.27;;;24.90;71.90;;;;;;4987023;28;20545;-75
2022/06/10 12:45:47;;;;;;;3.03;1.73;;;24.60;76.70;;;;;;4988525;28;20475;-75
2022/06/10 12:48:15;;;;;;;2.80;1.20;;;24.40;78.40;;;;;;4988850;28;20452;-75
2022/06/10 12:50:54;;;;;;;8.33;1.37;;;24.40;77.50;;;;;;4988590;28;20446;-75
2022/06/10 12:53:34;;;;;;;5.60;1.80;;;24.30;82.40;;;;;;4988374;28;20440;-75
2022/06/10 12:56:14;;;;;;;4.23;1.53;;;24.40;81.10;;;;;;4988599;28;20486;-75
2022/06/10 12:58:43;;;;;;;6.07;1.23;;;25.10;78.30;;;;;;4988411;28;20439;-75
2022/06/10 13:01:18;;;;;;;2.93;1.23;;;25.70;75.50;;;;;;4988641;28;20432;-75
2022/06/10 13:03:46;;;;;;;5.03;1.43;;;26.20;72.20;;;;;;5003126;28;20483;-75
2022/06/10 13:06:29;;;;;;;6.43;1.73;;;26.80;74.90;;;;;;4986812;28;20432;-76
2022/06/10 13:08:58;;;;;;;4.27;1.53;;;26.90;70.10;;;;;;4986833;28;20420;-76
2022/06/10 13:11:36;;;;;;;3.10;1.40;;;27.10;68.70;;;;;;4988461;28;20432;-76
2022/06/10 13:14:25;;;;;;;6.30;1.63;;;26.80;66.30;;;;;;4988191;28;20451;-76
2022/06/10 13:17:00;;;;;;;1.67;1.13;;;26.50;73.90;;;;;;4988371;28;20569;-75
2022/06/10 13:19:31;;;;;;;3.63;1.20;;;26.60;73.80;;;;;;4988522;28;20426;-75
2022/06/10 13:22:20;;;;;;;4.03;2.00;;;27.10;72.40;;;;;;4987955;28;20500;-75
2022/06/10 13:24:52;;;;;;;4.10;1.20;;;27.00;71.00;;;;;;4988642;28;20444;-75
2022/06/10 13:27:26;;;;;;;3.70;1.90;;;26.60;69.80;;;;;;4993833;28;20432;-75
2022/06/10 13:29:55;;;;;;;7.47;1.67;;;26.90;69.70;;;;;;5010384;28;20424;-75
2022/06/10 13:32:21;;;;;;;3.97;1.50;;;26.70;71.50;;;;;;4997411;28;20949;-76
2022/06/10 13:34:59;;;;;;;2.53;1.40;;;26.50;71.30;;;;;;4988947;28;20464;-75